Time;durP1;ratioP1;P1;durP2;ratioP2;P2;SDS_P1;SDS_P2;PMS_P1;PMS_P2;Temp;Humidity;BMP_temperature;BMP_pressure;BME280_temperature;BME280_humidity;BME280_pressure;Samples;Min_cycle;Max_cycle;Signal;HPM_P1;HPM_P2
2023/12/30 00:01:56;;;;;;;2.08;1.25;;;20.30;56.60;;;;;;4993879;28;20030;-69
2023/12/30 00:04:22;;;;;;;1.90;1.10;;;20.30;56.70;;;;;;4994451;28;20053;-68
2023/12/30 00:06:48;;;;;;;2.33;1.10;;;20.30;56.70;;;;;;4994649;28;20109;-69
2023/12/30 00:09:13;;;;;;;1.80;1.10;;;20.20;56.60;;;;;;4980891;28;20517;-69
2023/12/30 00:11:39;;;;;;;2.60;1.23;;;20.20;56.70;;;;;;4980279;28;20081;-69
2023/12/30 00:14:05;;;;;;;2.28;1.20;;;20.20;56.80;;;;;;4979394;28;20068;-70
2023/12/30 00:16:31;;;;;;;2.42;1.23;;;20.20;56.80;;;;;;4982189;28;20423;-68
2023/12/30 00:18:56;;;;;;;1.33;1.10;;;20.30;57.00;;;;;;4994738;28;20030;-69
2023/12/30 00:21:22;;;;;;;1.88;1.20;;;20.20;56.80;;;;;;4979012;28;20097;-68
2023/12/30 00:23:48;;;;;;;1.77;1.13;;;20.20;57.00;;;;;;4977629;28;20027;-69
2023/12/30 00:26:21;;;;;;;1.92;1.00;;;20.20;56.90;;;;;;4980396;28;20101;-71
2023/12/30 00:28:47;;;;;;;2.75;1.20;;;20.20;57.00;;;;;;4979862;28;20132;-69
2023/12/30 00:31:26;;;;;;;1.75;1.05;;;20.20;57.00;;;;;;4977955;28;20142;-69
2023/12/30 00:33:56;;;;;;;2.05;1.02;;;20.20;57.10;;;;;;4980690;28;20033;-69
2023/12/30 00:36:22;;;;;;;2.40;1.20;;;20.20;57.00;;;;;;4994446;28;20094;-69
2023/12/30 00:38:47;;;;;;;1.98;1.20;;;20.20;57.00;;;;;;4980751;28;20030;-68
2023/12/30 00:41:13;;;;;;;1.88;1.17;;;20.20;57.30;;;;;;4979212;28;20533;-68
2023/12/30 00:43:43;;;;;;;2.15;1.10;;;20.20;57.10;;;;;;4978485;28;20035;-68
2023/12/30 00:46:09;;;;;;;2.92;1.00;;;20.20;57.10;;;;;;4981100;28;20022;-68
2023/12/30 00:48:35;;;;;;;2.05;1.13;;;20.30;57.20;;;;;;4981428;28;20042;-68
2023/12/30 00:51:01;;;;;;;2.15;1.10;;;20.20;57.20;;;;;;4993124;28;20380;-68
2023/12/30 00:53:28;;;;;;;2.75;1.27;;;20.20;57.20;;;;;;4980123;28;20470;-68
2023/12/30 00:55:56;;;;;;;2.40;1.10;;;20.30;57.70;;;;;;4979307;28;20048;-69
2023/12/30 00:58:22;;;;;;;2.23;1.30;;;20.20;57.30;;;;;;4994874;28;20034;-69
2023/12/30 01:00:49;;;;;;;2.08;1.10;;;20.30;57.30;;;;;;4995116;28;20082;-68
2023/12/30 01:03:14;;;;;;;2.40;1.20;;;20.20;57.40;;;;;;4979940;28;20023;-69
2023/12/30 01:05:40;;;;;;;1.70;1.17;;;20.20;57.30;;;;;;4979935;28;20027;-69
2023/12/30 01:08:06;;;;;;;2.85;1.20;;;20.20;57.20;;;;;;4979772;28;20031;-68
2023/12/30 01:10:31;;;;;;;2.33;1.10;;;20.20;57.10;;;;;;4978899;28;20077;-69
2023/12/30 01:12:57;;;;;;;1.75;1.00;;;20.20;57.00;;;;;;4979508;28;20399;-69
2023/12/30 01:15:23;;;;;;;2.03;1.27;;;20.20;57.00;;;;;;4978675;28;20079;-69
2023/12/30 01:17:48;;;;;;;2.15;1.17;;;20.20;56.90;;;;;;4979655;28;20037;-69
2023/12/30 01:20:14;;;;;;;1.65;1.08;;;20.20;56.80;;;;;;4978456;28;20069;-68
2023/12/30 01:22:39;;;;;;;2.30;1.15;;;20.20;56.80;;;;;;4978079;28;20483;-68
2023/12/30 01:25:06;;;;;;;2.25;1.10;;;20.20;56.70;;;;;;4977219;28;20475;-68
2023/12/30 01:27:31;;;;;;;1.88;1.15;;;20.20;56.70;;;;;;4979690;28;20081;-69
2023/12/30 01:29:57;;;;;;;1.85;1.10;;;20.20;56.70;;;;;;4980429;28;20030;-68
2023/12/30 01:32:22;;;;;;;2.05;0.90;;;20.20;56.60;;;;;;4978553;28;20030;-69
2023/12/30 01:34:48;;;;;;;1.80;0.98;;;20.20;56.60;;;;;;4979584;28;20058;-67
2023/12/30 01:37:13;;;;;;;2.10;1.10;;;20.20;56.60;;;;;;4978363;28;20038;-68
2023/12/30 01:39:39;;;;;;;2.20;1.00;;;20.20;56.50;;;;;;4979437;28;20501;-68
2023/12/30 01:42:05;;;;;;;1.85;1.00;;;20.20;56.50;;;;;;4979148;28;20039;-68
2023/12/30 01:44:30;;;;;;;2.20;1.05;;;20.20;56.40;;;;;;4981338;28;20029;-68
2023/12/30 01:46:56;;;;;;;1.50;0.90;;;20.20;56.40;;;;;;4978170;28;20466;-68
2023/12/30 01:49:22;;;;;;;1.80;1.10;;;20.20;56.30;;;;;;4979963;28;20084;-68
2023/12/30 01:51:49;;;;;;;1.80;1.02;;;20.20;56.30;;;;;;4978869;28;20027;-68
2023/12/30 01:54:17;;;;;;;1.55;1.00;;;20.20;56.40;;;;;;4993188;28;20038;-68
2023/12/30 01:56:44;;;;;;;1.27;0.82;;;20.10;56.20;;;;;;4976968;28;20070;-70
2023/12/30 01:59:11;;;;;;;1.90;0.90;;;20.20;56.20;;;;;;4994380;28;20502;-70
2023/12/30 02:01:37;;;;;;;2.15;0.90;;;20.20;56.20;;;;;;4981900;28;20198;-70
2023/12/30 02:04:03;;;;;;;1.40;0.82;;;20.10;56.10;;;;;;4981870;28;20870;-70
2023/12/30 02:06:28;;;;;;;1.65;1.00;;;20.10;56.20;;;;;;4998292;28;20030;-70
2023/12/30 02:08:54;;;;;;;2.08;1.00;;;20.10;56.60;;;;;;4981006;28;20031;-70
2023/12/30 02:11:20;;;;;;;1.38;0.90;;;20.10;56.10;;;;;;4999115;28;20084;-70
2023/12/30 02:13:45;;;;;;;1.70;1.00;;;20.10;56.10;;;;;;4999175;28;20034;-70
2023/12/30 02:16:11;;;;;;;1.38;0.90;;;20.10;56.10;;;;;;4981105;28;20113;-70
2023/12/30 02:18:38;;;;;;;1.67;0.90;;;20.10;56.10;;;;;;4981851;28;20069;-68
2023/12/30 02:21:04;;;;;;;1.55;0.80;;;20.10;56.00;;;;;;4982644;28;20374;-69
2023/12/30 02:23:29;;;;;;;2.53;1.15;;;20.10;56.00;;;;;;4979456;28;20443;-69
2023/12/30 02:25:55;;;;;;;1.85;0.90;;;20.10;56.00;;;;;;4982029;28;20113;-67
2023/12/30 02:28:20;;;;;;;2.28;0.90;;;20.10;56.00;;;;;;4982711;28;20031;-69
2023/12/30 02:30:46;;;;;;;1.13;0.88;;;20.10;56.00;;;;;;4980231;28;20030;-68
2023/12/30 02:33:12;;;;;;;1.58;0.93;;;20.10;56.00;;;;;;4996542;28;20045;-68
2023/12/30 02:35:40;;;;;;;1.60;1.00;;;20.10;56.00;;;;;;4982032;28;20368;-68
2023/12/30 02:38:06;;;;;;;1.43;0.80;;;20.10;56.00;;;;;;4982057;28;20042;-68
2023/12/30 02:40:31;;;;;;;1.70;1.00;;;20.10;56.00;;;;;;4996579;28;20045;-68
2023/12/30 02:42:57;;;;;;;1.40;0.90;;;20.10;55.90;;;;;;4982991;28;20036;-68
2023/12/30 02:45:22;;;;;;;1.30;0.88;;;20.10;55.90;;;;;;4983405;28;20503;-69
2023/12/30 02:47:48;;;;;;;1.77;0.90;;;20.10;55.90;;;;;;4982091;28;20026;-68
2023/12/30 02:50:14;;;;;;;1.55;1.00;;;20.00;55.80;;;;;;4980601;28;20037;-69
2023/12/30 02:52:39;;;;;;;1.33;1.00;;;20.10;55.90;;;;;;4980283;28;20057;-68
2023/12/30 02:55:06;;;;;;;1.23;0.90;;;20.10;55.80;;;;;;4996136;28;20084;-68
2023/12/30 02:57:31;;;;;;;1.40;0.80;;;20.10;55.80;;;;;;4978667;28;20026;-68
2023/12/30 02:59:57;;;;;;;1.00;0.80;;;20.10;55.80;;;;;;4982225;28;20022;-68
2023/12/30 03:02:23;;;;;;;1.35;0.90;;;20.00;55.70;;;;;;4982183;28;20031;-68
2023/12/30 03:04:49;;;;;;;1.30;0.85;;;20.00;55.70;;;;;;4983353;28;20030;-68
2023/12/30 03:07:15;;;;;;;1.67;0.93;;;20.00;55.70;;;;;;4980740;28;20070;-68
2023/12/30 03:09:40;;;;;;;1.40;0.90;;;20.00;56.30;;;;;;4981102;28;20431;-68
2023/12/30 03:12:08;;;;;;;1.83;1.05;;;20.00;55.70;;;;;;4995243;28;20022;-68
2023/12/30 03:14:33;;;;;;;1.50;0.90;;;20.00;55.70;;;;;;4980575;28;20129;-69
2023/12/30 03:16:59;;;;;;;1.17;0.77;;;20.00;55.70;;;;;;4979901;28;20117;-68
2023/12/30 03:19:25;;;;;;;2.05;1.00;;;20.00;56.20;;;;;;4980543;28;20479;-68
2023/12/30 03:21:50;;;;;;;1.27;0.90;;;20.00;55.70;;;;;;4978431;28;20023;-68
2023/12/30 03:24:16;;;;;;;1.98;1.00;;;20.00;55.70;;;;;;4979844;28;20478;-68
2023/12/30 03:26:42;;;;;;;1.60;0.98;;;20.00;55.70;;;;;;4982111;28;20034;-67
2023/12/30 03:29:07;;;;;;;1.70;1.00;;;20.00;55.70;;;;;;4983569;28;20031;-67
2023/12/30 03:31:33;;;;;;;1.27;0.82;;;20.00;55.70;;;;;;4978541;28;20066;-67
2023/12/30 03:33:59;;;;;;;1.15;0.80;;;20.00;55.60;;;;;;4980954;28;20084;-68
2023/12/30 03:36:24;;;;;;;1.55;0.70;;;20.00;55.60;;;;;;4983369;28;20031;-68
2023/12/30 03:38:52;;;;;;;1.42;0.80;;;20.00;55.60;;;;;;4980264;28;20105;-68
2023/12/30 03:41:18;;;;;;;1.00;0.80;;;20.00;55.60;;;;;;4981044;28;20085;-67
2023/12/30 03:43:44;;;;;;;1.58;0.90;;;20.00;55.60;;;;;;4981306;28;20023;-67
2023/12/30 03:46:10;;;;;;;1.20;0.80;;;20.00;55.60;;;;;;4983390;28;20434;-67
2023/12/30 03:48:36;;;;;;;1.65;0.85;;;20.00;55.50;;;;;;4982192;28;20030;-67
2023/12/30 03:51:02;;;;;;;1.13;0.70;;;20.00;55.60;;;;;;4980944;28;20036;-67
2023/12/30 03:53:27;;;;;;;1.13;0.98;;;19.90;55.50;;;;;;4980172;28;20023;-68
2023/12/30 03:55:53;;;;;;;1.48;0.90;;;19.90;55.50;;;;;;4993093;28;20090;-67
2023/12/30 03:58:19;;;;;;;1.15;0.70;;;20.00;55.50;;;;;;4981476;28;20034;-67
2023/12/30 04:00:44;;;;;;;1.48;0.93;;;19.90;55.40;;;;;;4981627;28;20046;-68
2023/12/30 04:03:10;;;;;;;0.85;0.68;;;19.90;55.40;;;;;;4995893;28;20027;-67
2023/12/30 04:05:36;;;;;;;1.15;0.70;;;19.90;55.40;;;;;;4991697;28;20019;-68
2023/12/30 04:08:02;;;;;;;1.67;0.90;;;19.90;55.40;;;;;;4979386;28;20455;-68
2023/12/30 04:10:27;;;;;;;1.52;0.80;;;19.90;55.40;;;;;;4979281;28;20395;-67
2023/12/30 04:12:53;;;;;;;2.28;0.90;;;19.90;55.40;;;;;;4980258;28;20038;-67
2023/12/30 04:15:19;;;;;;;1.65;1.00;;;19.90;55.30;;;;;;4979396;28;20030;-67
2023/12/30 04:17:45;;;;;;;1.05;0.70;;;19.90;55.30;;;;;;4980234;28;20058;-68
2023/12/30 04:20:11;;;;;;;1.92;0.90;;;19.90;55.40;;;;;;4996709;28;20490;-68
2023/12/30 04:22:36;;;;;;;0.73;0.65;;;19.80;55.80;;;;;;4978228;28;20027;-69
2023/12/30 04:25:02;;;;;;;1.58;0.77;;;19.80;55.30;;;;;;4979225;28;20038;-68
2023/12/30 04:27:28;;;;;;;1.42;0.90;;;19.80;55.30;;;;;;4993948;28;20019;-67
2023/12/30 04:29:54;;;;;;;1.15;0.90;;;19.80;55.30;;;;;;4977512;28;20529;-67
2023/12/30 04:32:24;;;;;;;1.08;0.80;;;19.80;55.30;;;;;;4979087;28;20035;-67
2023/12/30 04:34:50;;;;;;;1.30;0.80;;;19.80;55.40;;;;;;4981482;28;20117;-68
2023/12/30 04:37:16;;;;;;;1.40;0.90;;;19.80;55.40;;;;;;4978800;28;20534;-68
2023/12/30 04:39:41;;;;;;;1.08;0.90;;;19.80;55.40;;;;;;4993724;28;20034;-68
2023/12/30 04:42:07;;;;;;;1.17;0.90;;;19.80;55.40;;;;;;4981724;28;20370;-68
2023/12/30 04:44:32;;;;;;;1.38;0.70;;;19.80;55.40;;;;;;4979361;28;20060;-68
2023/12/30 04:46:58;;;;;;;1.10;0.73;;;19.80;55.40;;;;;;4978061;28;20023;-68
2023/12/30 04:49:24;;;;;;;1.15;0.80;;;19.80;55.40;;;;;;4979947;28;20039;-69
2023/12/30 04:51:49;;;;;;;1.20;0.70;;;19.80;55.40;;;;;;4980167;28;20030;-68
2023/12/30 04:54:15;;;;;;;1.33;0.80;;;19.80;55.40;;;;;;4978922;28;20169;-68
2023/12/30 04:56:41;;;;;;;1.48;1.15;;;19.80;55.40;;;;;;4978692;28;20050;-68
2023/12/30 04:59:08;;;;;;;1.33;0.82;;;19.80;55.40;;;;;;4980123;28;20030;-68
2023/12/30 05:01:34;;;;;;;1.20;0.75;;;19.80;55.50;;;;;;4978840;28;20023;-68
2023/12/30 05:04:01;;;;;;;0.90;0.80;;;19.80;55.40;;;;;;4981704;28;20034;-67
2023/12/30 05:06:27;;;;;;;1.13;0.70;;;19.80;55.40;;;;;;4981606;28;20033;-68
2023/12/30 05:08:53;;;;;;;1.00;0.65;;;19.70;55.40;;;;;;4979059;28;20034;-68
2023/12/30 05:11:19;;;;;;;0.95;0.70;;;19.80;55.50;;;;;;4978987;28;20043;-68
2023/12/30 05:13:46;;;;;;;1.58;0.82;;;19.70;55.40;;;;;;4978981;28;20529;-68
2023/12/30 05:16:11;;;;;;;1.10;0.80;;;19.80;55.40;;;;;;4979402;28;20026;-68
2023/12/30 05:18:37;;;;;;;1.17;0.82;;;19.70;55.50;;;;;;4979823;28;20034;-68
2023/12/30 05:21:03;;;;;;;0.98;0.65;;;19.70;55.50;;;;;;4979207;28;20026;-68
2023/12/30 05:23:31;;;;;;;1.10;0.75;;;19.70;55.50;;;;;;4979012;28;20490;-68
2023/12/30 05:25:57;;;;;;;1.30;0.80;;;19.70;55.50;;;;;;4975271;28;20572;-68
2023/12/30 05:28:22;;;;;;;1.10;0.75;;;19.70;55.50;;;;;;4980699;28;20092;-68
2023/12/30 05:30:48;;;;;;;1.33;0.80;;;19.70;55.50;;;;;;4979070;28;20034;-67
2023/12/30 05:33:14;;;;;;;1.40;0.80;;;19.70;55.50;;;;;;4979754;28;20031;-67
2023/12/30 05:35:40;;;;;;;1.05;0.77;;;19.70;55.50;;;;;;4978512;28;20046;-67
2023/12/30 05:38:06;;;;;;;0.93;0.70;;;19.70;56.10;;;;;;4984664;28;20034;-67
2023/12/30 05:40:31;;;;;;;1.48;0.70;;;19.70;55.50;;;;;;4982797;28;20430;-68
2023/12/30 05:42:57;;;;;;;1.52;0.90;;;19.70;55.60;;;;;;4981889;28;20328;-68
2023/12/30 05:45:22;;;;;;;1.02;0.60;;;19.70;55.60;;;;;;4998156;28;20049;-67
2023/12/30 05:47:48;;;;;;;1.42;0.80;;;19.70;55.60;;;;;;4984284;28;20105;-69
2023/12/30 05:50:14;;;;;;;0.98;0.70;;;19.70;55.60;;;;;;4981219;28;20037;-68
2023/12/30 05:52:40;;;;;;;0.93;0.70;;;19.70;55.60;;;;;;4984355;28;20507;-68
2023/12/30 05:55:06;;;;;;;1.10;0.80;;;19.70;55.70;;;;;;4983935;28;20038;-68
2023/12/30 05:57:32;;;;;;;1.27;0.80;;;19.70;55.60;;;;;;4984550;28;20403;-68
2023/12/30 05:59:57;;;;;;;1.08;0.73;;;19.70;55.70;;;;;;4981596;28;20026;-69
2023/12/30 06:02:23;;;;;;;1.20;0.80;;;19.70;55.70;;;;;;4984095;28;20026;-68
2023/12/30 06:04:48;;;;;;;0.60;0.60;;;19.70;55.70;;;;;;4998938;28;20026;-68
2023/12/30 06:07:14;;;;;;;1.25;0.80;;;19.70;55.80;;;;;;4983338;28;20105;-68
2023/12/30 06:09:41;;;;;;;1.10;0.70;;;19.70;55.80;;;;;;4980503;28;20023;-68
2023/12/30 06:12:07;;;;;;;0.77;0.60;;;19.70;55.80;;;;;;4982436;28;20191;-69
2023/12/30 06:14:35;;;;;;;1.20;0.80;;;19.70;55.80;;;;;;4981438;28;20035;-68
2023/12/30 06:17:00;;;;;;;1.73;1.00;;;19.70;55.80;;;;;;4998045;28;20026;-68
2023/12/30 06:19:26;;;;;;;1.10;0.70;;;19.70;55.80;;;;;;4977653;28;20034;-69
2023/12/30 06:21:51;;;;;;;0.80;0.80;;;19.70;55.80;;;;;;4984593;28;20034;-67
2023/12/30 06:24:17;;;;;;;0.88;0.70;;;19.70;55.80;;;;;;4996432;28;20023;-68
2023/12/30 06:26:44;;;;;;;1.27;0.90;;;19.70;56.30;;;;;;4982161;28;20030;-68
2023/12/30 06:29:09;;;;;;;0.80;0.70;;;19.70;55.80;;;;;;4980780;28;20102;-69
2023/12/30 06:31:42;;;;;;;1.50;0.70;;;19.70;55.80;;;;;;4983197;28;21001;-68
2023/12/30 06:34:08;;;;;;;1.30;0.90;;;19.70;56.00;;;;;;4982767;28;20417;-68
2023/12/30 06:36:34;;;;;;;1.05;0.75;;;19.70;55.90;;;;;;4982121;28;20390;-68
2023/12/30 06:38:59;;;;;;;0.88;0.70;;;19.70;55.90;;;;;;4981294;28;20030;-67
2023/12/30 06:41:25;;;;;;;1.00;0.68;;;19.70;55.90;;;;;;4995382;28;20041;-67
2023/12/30 06:43:51;;;;;;;1.08;0.70;;;19.70;55.90;;;;;;4997554;28;20026;-69
2023/12/30 06:46:20;;;;;;;0.60;0.60;;;19.60;55.90;;;;;;4982029;28;20541;-70
2023/12/30 06:48:46;;;;;;;1.05;0.80;;;19.70;55.90;;;;;;4982248;28;20548;-68
2023/12/30 06:51:12;;;;;;;1.02;0.70;;;19.60;55.80;;;;;;4997482;28;20046;-69
2023/12/30 06:53:38;;;;;;;0.70;0.60;;;19.70;55.90;;;;;;4982966;28;20077;-69
2023/12/30 06:56:08;;;;;;;0.93;0.70;;;19.70;55.90;;;;;;4980026;28;20046;-69
2023/12/30 06:58:34;;;;;;;1.08;0.73;;;19.70;55.90;;;;;;4983107;28;20034;-69
2023/12/30 07:00:59;;;;;;;1.20;0.82;;;19.60;55.90;;;;;;4982302;28;20506;-69
2023/12/30 07:03:25;;;;;;;0.95;0.73;;;19.60;56.00;;;;;;4981039;28;20038;-69
2023/12/30 07:05:51;;;;;;;0.93;0.70;;;19.60;56.00;;;;;;4980917;28;20023;-69
2023/12/30 07:08:16;;;;;;;1.23;0.77;;;19.60;56.50;;;;;;4982863;28;20109;-67
2023/12/30 07:10:42;;;;;;;0.55;0.55;;;19.60;55.90;;;;;;4982164;28;20153;-68
2023/12/30 07:13:08;;;;;;;0.80;0.60;;;19.70;56.00;;;;;;4981224;28;20105;-68
2023/12/30 07:15:34;;;;;;;1.00;0.70;;;19.60;55.90;;;;;;4981240;28;20733;-67
2023/12/30 07:18:00;;;;;;;1.00;0.70;;;19.60;56.00;;;;;;4983458;28;20359;-69
2023/12/30 07:20:26;;;;;;;0.80;0.60;;;19.60;56.50;;;;;;4981871;28;20391;-67
2023/12/30 07:22:53;;;;;;;0.85;0.70;;;19.60;56.00;;;;;;4980723;28;20475;-67
2023/12/30 07:25:19;;;;;;;0.88;0.70;;;19.60;56.00;;;;;;4981834;28;20030;-66
2023/12/30 07:27:45;;;;;;;1.15;0.68;;;19.60;56.00;;;;;;4981062;28;20062;-68
2023/12/30 07:30:11;;;;;;;1.08;0.68;;;19.60;56.00;;;;;;4982433;28;20152;-67
2023/12/30 07:32:37;;;;;;;1.08;0.63;;;19.60;56.00;;;;;;4979672;28;20038;-67
2023/12/30 07:35:07;;;;;;;1.00;0.70;;;19.60;56.00;;;;;;4980466;28;20552;-67
2023/12/30 07:37:33;;;;;;;0.80;0.65;;;19.60;56.00;;;;;;4979404;28;20479;-67
2023/12/30 07:40:00;;;;;;;1.23;0.77;;;19.60;56.00;;;;;;4980135;28;20493;-68
2023/12/30 07:42:26;;;;;;;0.85;0.80;;;19.60;56.00;;;;;;4981345;28;20022;-67
2023/12/30 07:44:53;;;;;;;0.80;0.70;;;19.60;56.00;;;;;;4977900;28;20606;-67
2023/12/30 07:47:19;;;;;;;0.70;0.60;;;19.60;56.00;;;;;;4978084;28;20035;-68
2023/12/30 07:49:46;;;;;;;0.90;0.65;;;19.60;56.00;;;;;;4980227;28;20110;-68
2023/12/30 07:52:11;;;;;;;1.00;0.73;;;19.60;56.50;;;;;;4978868;28;20047;-68
2023/12/30 07:54:37;;;;;;;1.00;0.60;;;19.60;56.00;;;;;;4978925;28;21552;-68
2023/12/30 07:57:03;;;;;;;0.60;0.60;;;19.60;56.10;;;;;;4978116;28;20027;-67
2023/12/30 07:59:28;;;;;;;1.00;0.70;;;19.60;56.00;;;;;;4979198;28;20034;-67
2023/12/30 08:01:56;;;;;;;0.63;0.55;;;19.60;56.00;;;;;;4982275;28;20558;-67
2023/12/30 08:04:22;;;;;;;1.08;0.75;;;19.60;56.00;;;;;;4978711;28;20034;-67
2023/12/30 08:06:48;;;;;;;0.95;0.70;;;19.60;56.10;;;;;;4992765;28;20023;-67
2023/12/30 08:09:14;;;;;;;0.88;0.70;;;19.60;56.00;;;;;;4980548;28;20070;-67
2023/12/30 08:11:41;;;;;;;1.17;0.70;;;19.60;56.00;;;;;;4978673;28;20058;-67
2023/12/30 08:14:07;;;;;;;1.00;0.60;;;19.60;56.00;;;;;;4979208;28;20490;-68
2023/12/30 08:16:35;;;;;;;1.00;0.70;;;19.60;56.00;;;;;;4981374;28;20046;-68
2023/12/30 08:19:02;;;;;;;1.50;0.70;;;19.60;56.10;;;;;;4978354;28;20027;-67
2023/12/30 08:21:27;;;;;;;1.45;0.70;;;19.50;56.00;;;;;;4993489;28;20026;-68
2023/12/30 08:23:54;;;;;;;0.88;0.60;;;19.60;56.10;;;;;;4980172;28;20084;-67
2023/12/30 08:26:20;;;;;;;1.52;0.70;;;19.60;56.10;;;;;;4978991;28;20019;-67
2023/12/30 08:28:46;;;;;;;1.02;0.68;;;19.60;56.10;;;;;;4982188;28;20053;-71
2023/12/30 08:31:12;;;;;;;1.25;0.70;;;19.60;56.10;;;;;;4979657;28;20030;-71
2023/12/30 08:33:39;;;;;;;1.17;0.70;;;19.50;56.00;;;;;;4979303;28;20037;-71
2023/12/30 08:36:04;;;;;;;0.85;0.70;;;19.60;56.10;;;;;;4979616;28;20482;-70
2023/12/30 08:38:31;;;;;;;1.10;0.70;;;19.60;56.10;;;;;;4979382;28;20117;-70
2023/12/30 08:40:57;;;;;;;0.98;0.65;;;19.60;56.10;;;;;;4976884;28;20034;-70
2023/12/30 08:43:23;;;;;;;0.68;0.60;;;19.50;56.10;;;;;;4980342;28;20027;-70
2023/12/30 08:45:49;;;;;;;1.10;0.70;;;19.50;56.10;;;;;;4978024;28;20034;-70
2023/12/30 08:48:15;;;;;;;1.25;0.70;;;19.50;56.10;;;;;;4979877;28;20425;-71
2023/12/30 08:50:41;;;;;;;1.10;0.70;;;19.60;56.20;;;;;;4979368;28;20484;-70
2023/12/30 08:53:07;;;;;;;1.02;0.85;;;19.50;56.10;;;;;;4979991;28;20022;-70
2023/12/30 08:55:32;;;;;;;1.40;0.80;;;19.50;56.10;;;;;;4977513;28;20037;-70
2023/12/30 08:57:58;;;;;;;0.95;0.70;;;19.50;56.10;;;;;;4980990;28;20085;-68
2023/12/30 09:00:24;;;;;;;1.30;0.80;;;19.50;56.50;;;;;;4981386;28;20022;-68
2023/12/30 09:02:49;;;;;;;0.95;0.80;;;19.50;56.10;;;;;;4993771;28;20038;-68
2023/12/30 09:05:18;;;;;;;1.13;0.70;;;19.60;56.10;;;;;;4978798;28;20118;-68
2023/12/30 09:07:45;;;;;;;1.00;0.80;;;19.50;56.10;;;;;;4978954;28;20019;-68
2023/12/30 09:10:11;;;;;;;0.98;0.70;;;19.50;56.10;;;;;;4981807;28;20033;-68
2023/12/30 09:12:37;;;;;;;1.08;0.80;;;19.50;56.10;;;;;;4999149;28;20031;-69
2023/12/30 09:15:03;;;;;;;1.20;0.88;;;19.50;56.10;;;;;;4981865;28;20957;-68
2023/12/30 09:17:30;;;;;;;1.63;0.90;;;19.50;56.10;;;;;;4984139;28;20037;-69
2023/12/30 09:19:56;;;;;;;0.80;0.70;;;19.50;56.10;;;;;;4985139;28;20034;-70
2023/12/30 09:22:22;;;;;;;1.90;0.80;;;19.50;56.10;;;;;;4981941;28;20022;-69
2023/12/30 09:24:47;;;;;;;0.90;0.75;;;19.50;56.10;;;;;;4984053;28;20026;-70
2023/12/30 09:27:13;;;;;;;1.25;0.85;;;19.50;56.10;;;;;;4983956;28;20105;-70
2023/12/30 09:29:39;;;;;;;1.40;1.00;;;19.50;56.10;;;;;;4984274;28;20034;-70
2023/12/30 09:32:05;;;;;;;1.40;0.85;;;19.50;56.10;;;;;;4983546;28;20133;-70
2023/12/30 09:34:30;;;;;;;1.38;0.80;;;19.50;56.10;;;;;;4982153;28;20136;-70
2023/12/30 09:36:56;;;;;;;1.60;1.05;;;19.50;56.10;;;;;;4982048;28;20030;-70
2023/12/30 09:39:21;;;;;;;1.67;1.00;;;19.50;56.10;;;;;;4996767;28;20165;-70
2023/12/30 09:41:47;;;;;;;1.38;0.95;;;19.50;56.20;;;;;;4982695;28;20078;-69
2023/12/30 09:44:13;;;;;;;1.25;0.75;;;19.50;56.10;;;;;;4984022;28;20035;-70
2023/12/30 09:46:40;;;;;;;1.45;0.90;;;19.50;56.20;;;;;;4994480;28;20034;-70
2023/12/30 09:49:07;;;;;;;1.77;1.00;;;19.50;56.20;;;;;;4998065;28;20038;-70
2023/12/30 09:51:33;;;;;;;1.35;0.90;;;19.50;56.20;;;;;;4983660;28;20109;-70
2023/12/30 09:53:59;;;;;;;1.55;0.90;;;19.50;56.20;;;;;;4982100;28;20027;-70
2023/12/30 09:56:26;;;;;;;1.13;0.80;;;19.50;56.20;;;;;;4981082;28;20506;-70
2023/12/30 09:58:53;;;;;;;1.38;0.88;;;19.50;56.20;;;;;;4981950;28;20458;-70
2023/12/30 10:01:20;;;;;;;1.80;1.00;;;19.50;56.20;;;;;;4984314;28;20077;-70
2023/12/30 10:03:46;;;;;;;1.88;1.10;;;19.50;56.10;;;;;;4983727;28;20538;-70
2023/12/30 10:06:14;;;;;;;1.73;0.98;;;19.50;56.20;;;;;;4983949;28;20135;-70
2023/12/30 10:08:41;;;;;;;1.92;0.98;;;19.50;56.20;;;;;;4980738;28;20031;-68
2023/12/30 10:11:10;;;;;;;1.25;0.90;;;19.50;56.20;;;;;;4980870;28;20033;-68
2023/12/30 10:13:39;;;;;;;1.70;1.00;;;19.50;56.10;;;;;;4981662;28;20038;-68
2023/12/30 10:16:06;;;;;;;1.65;1.00;;;19.50;56.20;;;;;;4996111;28;20109;-67
2023/12/30 10:18:32;;;;;;;1.30;0.80;;;19.50;56.20;;;;;;4983007;28;20030;-68
2023/12/30 10:20:58;;;;;;;2.05;1.02;;;19.50;56.20;;;;;;4982467;28;20386;-68
2023/12/30 10:23:27;;;;;;;1.52;0.90;;;19.50;56.70;;;;;;4982387;28;20018;-68
2023/12/30 10:25:53;;;;;;;1.35;0.90;;;19.50;56.20;;;;;;4981400;28;20037;-68
2023/12/30 10:28:19;;;;;;;1.90;0.90;;;19.50;56.20;;;;;;4983412;28;20038;-68
2023/12/30 10:30:47;;;;;;;1.50;0.93;;;19.50;56.20;;;;;;4981438;28;20057;-68
2023/12/30 10:33:14;;;;;;;1.75;0.90;;;19.50;56.20;;;;;;4982286;28;20034;-68
2023/12/30 10:35:41;;;;;;;1.70;0.90;;;19.50;56.20;;;;;;4980883;28;20035;-68
2023/12/30 10:38:10;;;;;;;1.60;1.00;;;19.50;56.20;;;;;;4981455;28;20037;-69
2023/12/30 10:40:38;;;;;;;1.38;1.08;;;19.50;56.10;;;;;;4980989;28;20046;-69
2023/12/30 10:43:04;;;;;;;1.67;1.08;;;19.50;56.20;;;;;;4981511;28;20023;-68
2023/12/30 10:45:30;;;;;;;2.00;1.00;;;19.50;56.20;;;;;;4981128;28;20099;-69
2023/12/30 10:47:58;;;;;;;1.75;1.02;;;19.40;56.10;;;;;;4979621;28;20023;-68
2023/12/30 10:50:25;;;;;;;2.20;1.05;;;19.50;56.20;;;;;;4981005;28;20023;-68
2023/12/30 10:52:55;;;;;;;1.63;1.00;;;19.50;56.20;;;;;;4982480;28;20026;-68
2023/12/30 10:55:27;;;;;;;1.35;0.82;;;19.40;56.10;;;;;;4981525;28;20130;-68
2023/12/30 10:58:01;;;;;;;1.33;0.80;;;19.50;56.20;;;;;;4995945;28;20041;-69
2023/12/30 11:00:28;;;;;;;1.30;0.80;;;19.50;56.20;;;;;;4994863;28;20074;-68
2023/12/30 11:02:54;;;;;;;1.48;0.90;;;19.40;56.10;;;;;;4979762;28;20582;-68
2023/12/30 11:05:47;;;;;;;1.25;0.90;;;19.50;56.20;;;;;;4982251;28;20027;-68
2023/12/30 11:08:13;;;;;;;1.65;1.00;;;19.50;56.20;;;;;;4982773;28;20586;-68
2023/12/30 11:10:39;;;;;;;1.98;0.90;;;19.40;56.10;;;;;;4977442;28;20102;-68
2023/12/30 11:13:07;;;;;;;1.23;0.82;;;19.50;56.20;;;;;;4980560;28;20113;-69
2023/12/30 11:15:33;;;;;;;1.98;0.90;;;19.50;56.10;;;;;;4979642;28;20033;-68
2023/12/30 11:18:01;;;;;;;1.90;1.00;;;19.50;56.10;;;;;;4995749;28;20062;-68
2023/12/30 11:20:32;;;;;;;3.17;1.33;;;19.50;56.10;;;;;;4979408;28;20033;-68
2023/12/30 11:23:02;;;;;;;1.75;0.80;;;19.50;56.10;;;;;;4978384;28;20038;-68
2023/12/30 11:25:42;;;;;;;1.50;0.90;;;19.50;56.20;;;;;;4998667;28;20549;-68
2023/12/30 11:28:19;;;;;;;2.15;1.17;;;19.50;56.10;;;;;;4980483;28;20041;-68
2023/12/30 11:30:55;;;;;;;1.45;0.80;;;19.40;56.10;;;;;;4980923;28;20027;-69
2023/12/30 11:33:21;;;;;;;1.58;0.90;;;19.40;56.10;;;;;;4981499;28;20913;-68
2023/12/30 11:35:48;;;;;;;1.67;1.00;;;19.50;56.10;;;;;;4982131;28;20030;-68
2023/12/30 11:38:17;;;;;;;1.35;0.90;;;19.40;56.00;;;;;;4996540;28;20030;-68
2023/12/30 11:40:54;;;;;;;1.75;1.00;;;19.50;56.10;;;;;;4981143;28;20395;-68
2023/12/30 11:43:21;;;;;;;1.55;0.90;;;19.50;56.10;;;;;;4976490;28;20030;-68
2023/12/30 11:45:46;;;;;;;1.52;0.82;;;19.50;56.10;;;;;;4980090;28;20037;-68
2023/12/30 11:48:13;;;;;;;1.52;0.77;;;19.40;56.10;;;;;;4979928;28;20038;-69
2023/12/30 11:50:39;;;;;;;1.27;0.77;;;19.50;56.10;;;;;;4980006;28;20550;-68
2023/12/30 11:53:11;;;;;;;1.48;0.90;;;19.50;56.20;;;;;;5056604;28;21069;-67
2023/12/30 11:55:36;;;;;;;1.27;0.80;;;19.50;56.30;;;;;;5054759;28;20033;-66
2023/12/30 11:58:03;;;;;;;0.90;0.70;;;19.50;56.20;;;;;;5050201;28;20025;-66
2023/12/30 12:00:29;;;;;;;1.10;0.80;;;19.50;56.30;;;;;;5051589;28;20025;-67
2023/12/30 12:02:56;;;;;;;1.48;0.85;;;19.50;56.30;;;;;;5053857;28;20032;-66
2023/12/30 12:05:22;;;;;;;1.83;0.80;;;19.50;56.30;;;;;;5056023;28;20078;-66
2023/12/30 12:07:48;;;;;;;2.60;1.05;;;19.50;56.30;;;;;;5054739;28;20028;-67
2023/12/30 12:10:14;;;;;;;1.45;0.80;;;19.50;56.80;;;;;;5053252;28;20038;-67
2023/12/30 12:12:48;;;;;;;1.20;0.70;;;19.50;56.40;;;;;;5051557;28;20029;-67
2023/12/30 12:15:13;;;;;;;1.30;0.80;;;19.60;56.40;;;;;;5054644;28;20083;-67
2023/12/30 12:17:40;;;;;;;1.30;0.82;;;19.60;56.50;;;;;;5053755;28;20392;-66
2023/12/30 12:20:08;;;;;;;1.73;0.80;;;19.60;56.40;;;;;;5054926;28;20025;-67
2023/12/30 12:22:34;;;;;;;1.38;0.80;;;19.60;56.40;;;;;;5053485;28;20029;-66
2023/12/30 12:25:02;;;;;;;0.90;0.70;;;19.60;56.40;;;;;;5054121;28;20375;-67
2023/12/30 12:27:28;;;;;;;1.40;0.82;;;19.60;56.40;;;;;;5051894;28;20417;-68
2023/12/30 12:29:54;;;;;;;0.98;0.70;;;19.60;56.40;;;;;;5056349;28;20047;-69
2023/12/30 12:32:21;;;;;;;1.73;0.80;;;19.70;56.40;;;;;;5054025;28;20520;-69
2023/12/30 12:34:47;;;;;;;1.50;0.98;;;19.70;56.40;;;;;;5054557;28;20056;-69
2023/12/30 12:37:16;;;;;;;1.98;0.88;;;19.70;56.40;;;;;;5055910;28;20429;-69
2023/12/30 12:39:43;;;;;;;1.33;0.75;;;19.70;56.30;;;;;;5054317;28;20511;-69
2023/12/30 12:42:10;;;;;;;1.63;1.00;;;19.70;56.30;;;;;;5049462;28;20128;-69
2023/12/30 12:44:36;;;;;;;1.60;0.80;;;19.70;56.20;;;;;;5053192;28;20041;-69